Time;durP1;ratioP1;P1;durP2;ratioP2;P2;SDS_P1;SDS_P2;PMS_P1;PMS_P2;Temp;Humidity;BMP_temperature;BMP_pressure;BME280_temperature;BME280_humidity;BME280_pressure;Samples;Min_cycle;Max_cycle;Signal;HPM_P1;HPM_P2
2024/03/07 00:02:51;;;;;;;1.43;1.43;;;9.20;99.90;;;;;;10548125;28;20200;-83
2024/03/07 00:07:55;;;;;;;1.23;1.23;;;9.20;99.90;;;;;;10530755;28;20644;-77
2024/03/07 00:12:57;;;;;;;1.70;1.70;;;9.10;99.90;;;;;;10548984;28;20201;-77
2024/03/07 00:18:00;;;;;;;1.40;1.40;;;9.10;99.90;;;;;;10545282;28;20239;-81
2024/03/07 00:23:04;;;;;;;1.20;1.20;;;9.10;99.90;;;;;;10536695;28;20230;-81
2024/03/07 00:28:06;;;;;;;1.10;1.10;;;9.00;99.90;;;;;;10547675;28;20228;-81
2024/03/07 00:33:09;;;;;;;1.10;1.10;;;9.00;99.90;;;;;;10535807;28;20233;-81
2024/03/07 00:38:12;;;;;;;1.10;1.10;;;9.00;99.90;;;;;;10548849;28;20592;-82
2024/03/07 00:43:15;;;;;;;0.90;0.90;;;9.00;99.90;;;;;;10514579;28;20230;-83
2024/03/07 00:48:18;;;;;;;0.90;0.90;;;9.00;99.90;;;;;;10540938;28;20243;-80
2024/03/07 00:53:22;;;;;;;1.10;1.10;;;9.00;99.90;;;;;;10555084;28;20211;-80
2024/03/07 00:58:24;;;;;;;1.00;1.00;;;8.90;99.90;;;;;;10537231;28;20561;-80
2024/03/07 01:03:26;;;;;;;0.90;0.90;;;8.90;99.90;;;;;;10551487;28;20199;-80
2024/03/07 01:08:32;;;;;;;0.90;0.90;;;8.90;99.90;;;;;;10568008;28;20262;-80
2024/03/07 01:13:34;;;;;;;0.80;0.80;;;9.00;99.90;;;;;;10564065;28;20208;-81
2024/03/07 01:18:38;;;;;;;0.80;0.80;;;9.00;99.90;;;;;;10557810;28;20216;-81
2024/03/07 01:23:42;;;;;;;0.87;0.87;;;8.90;99.90;;;;;;10555757;28;20208;-79
2024/03/07 01:28:44;;;;;;;0.80;0.80;;;8.90;99.90;;;;;;10545838;28;20224;-81
2024/03/07 01:33:46;;;;;;;0.70;0.70;;;8.80;99.90;;;;;;10540665;28;20200;-79
2024/03/07 01:38:51;;;;;;;0.60;0.60;;;8.70;99.90;;;;;;10543717;28;20217;-81
2024/03/07 01:43:53;;;;;;;0.70;0.70;;;8.60;99.90;;;;;;10545305;28;20208;-81
2024/03/07 01:48:56;;;;;;;0.60;0.60;;;8.60;99.90;;;;;;10534605;28;20278;-78
2024/03/07 01:54:00;;;;;;;0.63;0.63;;;8.50;99.90;;;;;;10558039;28;20203;-81
2024/03/07 01:59:05;;;;;;;0.70;0.70;;;8.40;99.90;;;;;;10542437;28;20219;-82
2024/03/07 02:04:08;;;;;;;0.90;0.90;;;8.30;99.90;;;;;;10553379;28;20203;-81
2024/03/07 02:09:11;;;;;;;0.70;0.70;;;8.20;99.90;;;;;;10564211;28;20252;-81
2024/03/07 02:14:14;;;;;;;0.80;0.80;;;8.10;99.90;;;;;;10517021;28;20225;-81
2024/03/07 02:19:17;;;;;;;0.80;0.80;;;7.90;99.90;;;;;;10533048;28;20260;-82
2024/03/07 02:24:21;;;;;;;0.70;0.70;;;7.80;99.90;;;;;;10555413;28;20192;-83
2024/03/07 02:29:24;;;;;;;0.70;0.70;;;7.70;99.90;;;;;;10500187;28;20227;-82
2024/03/07 02:34:26;;;;;;;0.80;0.80;;;7.70;99.90;;;;;;10540478;28;20253;-81
2024/03/07 02:39:30;;;;;;;0.70;0.70;;;7.60;99.90;;;;;;10518967;28;20255;-81
2024/03/07 02:44:33;;;;;;;0.80;0.80;;;7.40;99.90;;;;;;10518115;28;20216;-80
2024/03/07 02:49:35;;;;;;;0.70;0.70;;;7.30;99.90;;;;;;10510359;28;20235;-80
2024/03/07 02:54:40;;;;;;;0.70;0.70;;;7.20;99.90;;;;;;10531285;28;20705;-80
2024/03/07 02:59:43;;;;;;;0.70;0.70;;;7.10;99.90;;;;;;10519104;28;20215;-80
2024/03/07 03:04:45;;;;;;;0.50;0.50;;;7.00;99.90;;;;;;10530254;28;20623;-81
2024/03/07 03:09:49;;;;;;;0.60;0.60;;;6.90;99.90;;;;;;10541170;28;20604;-77
2024/03/07 03:14:53;;;;;;;0.70;0.70;;;6.80;99.90;;;;;;10526259;28;20214;-80
2024/03/07 03:19:55;;;;;;;0.60;0.60;;;6.70;99.90;;;;;;10517877;28;20208;-78
2024/03/07 03:24:59;;;;;;;0.80;0.80;;;6.60;99.90;;;;;;10547076;28;20199;-77
2024/03/07 03:30:04;;;;;;;0.50;0.50;;;6.50;99.90;;;;;;10523286;28;20223;-81
2024/03/07 03:35:09;;;;;;;0.90;0.90;;;6.50;99.90;;;;;;10527109;28;20249;-78
2024/03/07 03:40:13;;;;;;;0.90;0.90;;;6.40;99.90;;;;;;10499123;28;20624;-79
2024/03/07 03:45:16;;;;;;;0.60;0.60;;;6.30;99.90;;;;;;10543528;28;20215;-78
2024/03/07 03:50:18;;;;;;;0.90;0.90;;;6.20;99.90;;;;;;10514013;28;20203;-80
2024/03/07 03:55:22;;;;;;;0.60;0.60;;;6.10;99.90;;;;;;10530000;28;20240;-81
2024/03/07 04:00:25;;;;;;;0.63;0.63;;;6.00;99.90;;;;;;10522673;28;20193;-80
2024/03/07 04:05:27;;;;;;;0.90;0.90;;;5.90;99.90;;;;;;10506518;28;20238;-81
2024/03/07 04:10:31;;;;;;;0.80;0.80;;;5.90;99.90;;;;;;10559861;28;20192;-81
2024/03/07 04:15:33;;;;;;;1.00;1.00;;;5.90;99.90;;;;;;10526505;28;20220;-81
2024/03/07 04:20:36;;;;;;;1.00;1.00;;;5.80;99.90;;;;;;10531866;28;20200;-80
2024/03/07 04:25:39;;;;;;;1.10;1.10;;;5.80;99.90;;;;;;10526115;28;20335;-79
2024/03/07 04:30:42;;;;;;;0.87;0.87;;;5.70;99.90;;;;;;10503944;28;20220;-81
2024/03/07 04:35:45;;;;;;;1.00;1.00;;;5.70;99.90;;;;;;10503912;28;20628;-80
2024/03/07 04:40:49;;;;;;;0.23;0.23;;;5.60;99.90;;;;;;10550235;28;20200;-79
2024/03/07 04:45:51;;;;;;;1.20;1.20;;;5.60;99.90;;;;;;10542022;28;20315;-81
2024/03/07 04:50:53;;;;;;;1.20;1.20;;;5.70;99.90;;;;;;10517093;28;20228;-81
2024/03/07 04:55:57;;;;;;;1.00;1.00;;;5.60;99.90;;;;;;10544769;28;20753;-79
2024/03/07 05:01:00;;;;;;;0.90;0.90;;;5.60;99.90;;;;;;10542926;28;20214;-83
2024/03/07 05:06:02;;;;;;;1.00;1.00;;;5.60;99.90;;;;;;10554083;28;20384;-80
2024/03/07 05:11:06;;;;;;;0.70;0.70;;;5.50;99.90;;;;;;10530044;28;20212;-80
2024/03/07 05:16:08;;;;;;;1.00;1.00;;;5.50;99.90;;;;;;10561067;28;20216;-81
2024/03/07 05:26:28;;;;;;;0.60;0.60;;;5.40;99.90;;;;;;10549313;28;20215;-78
2024/03/07 05:31:33;;;;;;;0.83;0.83;;;5.30;99.90;;;;;;10552333;28;20203;-80
2024/03/07 05:36:43;;;;;;;0.80;0.80;;;5.20;99.90;;;;;;10513779;28;20219;-78
2024/03/07 05:41:48;;;;;;;0.70;0.70;;;5.20;99.90;;;;;;10518504;28;20219;-81
2024/03/07 05:46:50;;;;;;;0.50;0.50;;;5.10;99.90;;;;;;10488377;28;20216;-82
2024/03/07 05:51:53;;;;;;;0.50;0.50;;;5.10;99.90;;;;;;10512268;28;20192;-81
2024/03/07 05:56:56;;;;;;;0.30;0.30;;;5.00;99.90;;;;;;10527201;28;20385;-81
2024/03/07 06:01:59;;;;;;;0.80;0.80;;;;;;;;;;10532088;28;20212;-80
2024/03/07 06:07:01;;;;;;;0.53;0.53;;;5.00;99.90;;;;;;10517830;28;20386;-79
2024/03/07 06:12:08;;;;;;;0.67;0.67;;;4.90;99.90;;;;;;10510691;28;20242;-78
2024/03/07 06:17:10;;;;;;;0.80;0.80;;;4.90;99.90;;;;;;10505170;28;20693;-79
2024/03/07 06:22:13;;;;;;;0.80;0.80;;;4.90;99.90;;;;;;10519831;28;20204;-78
2024/03/07 06:27:26;;;;;;;0.70;0.70;;;4.90;99.90;;;;;;10516526;28;20387;-77
2024/03/07 06:32:29;;;;;;;0.70;0.70;;;4.90;99.90;;;;;;10508635;28;20208;-77
2024/03/07 06:37:31;;;;;;;0.80;0.80;;;5.00;99.90;;;;;;10497329;28;20209;-79
2024/03/07 06:42:36;;;;;;;0.70;0.70;;;4.90;99.90;;;;;;10480724;28;20189;-78
2024/03/07 06:47:38;;;;;;;0.60;0.60;;;5.00;99.90;;;;;;10493835;28;20227;-77
2024/03/07 06:52:41;;;;;;;0.70;0.70;;;5.00;99.90;;;;;;10495048;28;20204;-80
2024/03/07 06:57:45;;;;;;;0.60;0.60;;;5.00;99.90;;;;;;10513539;28;20235;-79
2024/03/07 07:02:48;;;;;;;0.40;0.40;;;5.00;99.90;;;;;;10508084;28;20208;-79
2024/03/07 07:07:51;;;;;;;0.70;0.70;;;5.00;99.90;;;;;;10532572;28;20223;-78
2024/03/07 07:12:55;;;;;;;0.70;0.70;;;5.10;99.90;;;;;;10506776;28;20623;-81
2024/03/07 07:17:58;;;;;;;0.80;0.80;;;5.20;99.90;;;;;;10501530;28;20239;-80
2024/03/07 07:23:02;;;;;;;0.70;0.70;;;5.30;99.90;;;;;;10501604;28;20224;-78
2024/03/07 07:28:07;;;;;;;0.50;0.50;;;5.30;99.90;;;;;;10498175;28;20223;-78
2024/03/07 07:33:10;;;;;;;0.60;0.60;;;5.40;99.90;;;;;;10499622;28;20208;-79
2024/03/07 07:38:14;;;;;;;0.40;0.40;;;5.50;99.90;;;;;;10497677;28;20701;-77
2024/03/07 07:43:19;;;;;;;0.70;0.70;;;5.70;99.90;;;;;;10503677;28;20714;-79
2024/03/07 07:48:21;;;;;;;0.70;0.70;;;5.80;99.90;;;;;;10501312;28;20212;-79
2024/03/07 07:53:23;;;;;;;0.67;0.67;;;6.00;99.90;;;;;;10500608;28;20547;-81
2024/03/07 07:58:27;;;;;;;0.70;0.70;;;6.20;99.90;;;;;;10504156;28;20212;-80
2024/03/07 08:03:30;;;;;;;0.60;0.60;;;6.40;99.90;;;;;;10530817;28;20197;-79
2024/03/07 08:08:33;;;;;;;0.50;0.50;;;6.50;99.90;;;;;;10509950;28;20239;-77
2024/03/07 08:13:37;;;;;;;0.50;0.50;;;6.60;99.90;;;;;;10526278;28;20219;-78
2024/03/07 08:18:39;;;;;;;0.60;0.60;;;6.60;99.90;;;;;;10507957;28;20266;-78
2024/03/07 08:23:42;;;;;;;0.50;0.50;;;6.70;99.90;;;;;;10516860;28;20265;-79
2024/03/07 08:28:46;;;;;;;0.53;0.53;;;6.90;99.90;;;;;;10512538;28;20902;-79
2024/03/07 08:33:49;;;;;;;0.50;0.50;;;7.10;99.90;;;;;;10530152;28;20546;-78
2024/03/07 08:38:51;;;;;;;0.40;0.40;;;7.30;99.90;;;;;;10485179;28;20231;-78
2024/03/07 08:43:55;;;;;;;0.40;0.40;;;7.40;99.00;;;;;;10523721;28;20704;-78
2024/03/07 08:48:58;;;;;;;0.40;0.40;;;7.50;99.20;;;;;;10529978;28;20228;-77
2024/03/07 08:54:00;;;;;;;0.33;0.33;;;7.60;98.40;;;;;;10512751;28;20203;-79
2024/03/07 08:59:04;;;;;;;0.40;0.40;;;7.70;98.80;;;;;;10484954;28;20732;-79
2024/03/07 09:04:07;;;;;;;0.40;0.40;;;7.80;98.70;;;;;;10512822;28;20212;-78
2024/03/07 09:09:10;;;;;;;0.30;0.30;;;7.90;97.80;;;;;;10499667;28;20228;-78
2024/03/07 09:14:13;;;;;;;0.37;0.37;;;8.00;98.40;;;;;;10517919;28;20219;-79
2024/03/07 09:19:19;;;;;;;0.20;0.20;;;8.10;98.70;;;;;;10515005;28;20224;-78
2024/03/07 09:24:22;;;;;;;0.30;0.30;;;8.30;99.20;;;;;;10532102;28;20281;-79
2024/03/07 09:29:26;;;;;;;0.40;0.40;;;8.50;98.70;;;;;;10589216;22;20227;-76
2024/03/07 09:34:30;;;;;;;0.30;0.30;;;8.70;98.60;;;;;;10579664;27;20195;-76
2024/03/07 09:39:34;;;;;;;0.30;0.30;;;8.80;97.80;;;;;;10551655;28;20208;-77
2024/03/07 09:44:41;;;;;;;0.30;0.30;;;8.80;98.00;;;;;;10538556;28;20249;-76
2024/03/07 09:49:44;;;;;;;0.23;0.23;;;8.90;98.20;;;;;;10533281;28;20224;-76
2024/03/07 09:54:46;;;;;;;0.20;0.20;;;9.10;98.30;;;;;;10539071;28;20696;-75
2024/03/07 09:59:54;;;;;;;0.30;0.30;;;9.10;98.30;;;;;;10532645;28;20274;-77
2024/03/07 10:04:58;;;;;;;0.30;0.30;;;9.20;98.20;;;;;;10548199;28;20537;-76
2024/03/07 10:10:05;;;;;;;0.30;0.30;;;9.30;97.70;;;;;;10530682;28;20710;-77
2024/03/07 10:15:12;;;;;;;0.30;0.30;;;9.40;98.10;;;;;;10543251;28;20219;-75
2024/03/07 10:20:20;;;;;;;0.20;0.20;;;9.50;98.10;;;;;;10539858;28;20321;-77
2024/03/07 10:25:24;;;;;;;0.20;0.20;;;9.60;97.90;;;;;;10532574;28;20195;-74
2024/03/07 10:30:28;;;;;;;0.30;0.30;;;9.60;97.60;;;;;;10538975;28;20224;-77
2024/03/07 10:35:31;;;;;;;0.30;0.30;;;9.70;97.50;;;;;;10539241;28;20542;-76
2024/03/07 10:40:35;;;;;;;0.30;0.30;;;9.80;97.00;;;;;;10538515;28;20673;-76
2024/03/07 10:45:46;;;;;;;0.30;0.30;;;9.70;96.10;;;;;;10536178;28;20199;-77
2024/03/07 10:50:59;;;;;;;0.30;0.30;;;9.70;97.20;;;;;;10532003;28;20277;-76
2024/03/07 10:56:19;;;;;;;0.30;0.30;;;9.80;96.60;;;;;;10527996;28;20277;-77
2024/03/07 11:01:26;;;;;;;0.30;0.30;;;9.90;97.00;;;;;;10529087;28;20188;-77
2024/03/07 11:06:29;;;;;;;0.23;0.23;;;10.00;97.10;;;;;;10521217;28;20597;-76
2024/03/07 11:11:32;;;;;;;0.30;0.30;;;10.10;95.10;;;;;;10528081;28;20212;-77
2024/03/07 11:16:36;;;;;;;0.20;0.20;;;10.10;95.10;;;;;;10545184;28;20219;-77
2024/03/07 11:21:44;;;;;;;0.30;0.30;;;10.10;94.60;;;;;;10549433;28;20221;-77
2024/03/07 11:26:48;;;;;;;0.30;0.30;;;10.10;95.40;;;;;;10545858;28;20276;-76
2024/03/07 11:31:54;;;;;;;0.40;0.40;;;10.20;95.30;;;;;;10539706;28;20633;-76
2024/03/07 11:36:59;;;;;;;0.40;0.40;;;10.20;95.90;;;;;;10535201;28;20269;-76
2024/03/07 11:42:02;;;;;;;0.30;0.30;;;10.30;95.80;;;;;;10540567;28;20632;-76
2024/03/07 11:47:09;;;;;;;0.30;0.30;;;10.40;94.80;;;;;;10533881;28;20253;-77
2024/03/07 11:52:13;;;;;;;0.40;0.40;;;10.50;95.00;;;;;;10538959;28;20226;-76
2024/03/07 11:57:19;;;;;;;0.30;0.30;;;10.50;95.00;;;;;;10533703;28;20224;-76
2024/03/07 12:02:22;;;;;;;0.30;0.30;;;10.40;94.30;;;;;;10545750;28;20199;-76
2024/03/07 12:07:25;;;;;;;0.30;0.30;;;10.40;95.10;;;;;;10540058;28;20273;-77
2024/03/07 12:12:28;;;;;;;0.37;0.37;;;10.40;95.60;;;;;;10545485;28;20215;-76
2024/03/07 12:17:33;;;;;;;0.30;0.30;;;10.40;95.00;;;;;;10537375;28;20220;-77
2024/03/07 12:22:37;;;;;;;0.40;0.40;;;10.40;95.60;;;;;;10543247;28;20200;-76
2024/03/07 12:27:39;;;;;;;0.30;0.30;;;10.30;94.90;;;;;;10498388;28;1135964;-76
2024/03/07 12:32:48;;;;;;;0.30;0.30;;;10.30;95.00;;;;;;10544547;28;20212;-76
2024/03/07 12:37:51;;;;;;;0.20;0.20;;;10.20;95.50;;;;;;10538343;28;20219;-77
2024/03/07 12:42:54;;;;;;;0.20;0.20;;;10.20;95.30;;;;;;10542008;28;20257;-76
2024/03/07 12:48:04;;;;;;;0.30;0.30;;;10.00;95.20;;;;;;10532358;28;20561;-76
2024/03/07 12:53:11;;;;;;;0.30;0.30;;;10.00;95.40;;;;;;10540226;28;20214;-78
2024/03/07 12:58:15;;;;;;;0.27;0.27;;;10.10;95.50;;;;;;10535244;28;20301;-76
2024/03/07 13:03:19;;;;;;;0.20;0.20;;;10.20;95.60;;;;;;10534868;28;20207;-80
2024/03/07 13:08:25;;;;;;;0.10;0.10;;;10.20;95.80;;;;;;10539366;28;20232;-76
2024/03/07 13:13:27;;;;;;;0.30;0.30;;;10.30;96.10;;;;;;10544569;28;20203;-79
2024/03/07 13:18:33;;;;;;;0.30;0.30;;;10.40;95.40;;;;;;10536963;28;20207;-77
2024/03/07 13:23:39;;;;;;;0.17;0.17;;;10.40;95.20;;;;;;10535785;28;20188;-78
2024/03/07 13:28:42;;;;;;;0.20;0.20;;;10.40;94.80;;;;;;10537699;28;20234;-77
2024/03/07 13:33:51;;;;;;;0.30;0.30;;;10.40;95.40;;;;;;10540258;28;20204;-76
2024/03/07 13:38:54;;;;;;;0.10;0.10;;;10.40;95.50;;;;;;10533747;28;20238;-78
2024/03/07 13:43:56;;;;;;;0.20;0.20;;;10.40;95.80;;;;;;10538376;28;20280;-78
2024/03/07 13:49:06;;;;;;;0.30;0.30;;;10.40;95.90;;;;;;10535124;28;20227;-75
2024/03/07 13:54:27;;;;;;;0.20;0.20;;;10.30;95.60;;;;;;10532247;28;20290;-76
2024/03/07 13:59:56;;;;;;;0.30;0.30;;;10.30;95.50;;;;;;10541431;28;20220;-79
2024/03/07 14:05:28;;;;;;;0.20;0.20;;;10.20;95.60;;;;;;10534455;28;20196;-77
2024/03/07 14:11:11;;;;;;;0.20;0.20;;;10.20;95.90;;;;;;10531436;28;20581;-77
2024/03/07 14:16:44;;;;;;;0.20;0.20;;;10.20;95.20;;;;;;10514529;28;20695;-76
2024/03/07 14:22:04;;;;;;;0.30;0.30;;;10.30;95.10;;;;;;10532525;28;20200;-76
2024/03/07 14:27:31;;;;;;;0.30;0.30;;;10.40;94.60;;;;;;10524789;28;20235;-77
2024/03/07 14:32:33;;;;;;;0.30;0.30;;;10.30;94.70;;;;;;10533886;28;20215;-76
2024/03/07 14:37:46;;;;;;;0.40;0.40;;;10.30;95.30;;;;;;10533882;28;20226;-75
2024/03/07 14:42:50;;;;;;;0.40;0.40;;;10.40;95.00;;;;;;10531884;28;20204;-77
2024/03/07 14:47:53;;;;;;;0.40;0.40;;;10.50;93.90;;;;;;10530577;28;20540;-76
2024/03/07 14:52:56;;;;;;;0.50;0.50;;;10.50;94.50;;;;;;10529929;28;20226;-77
2024/03/07 14:58:00;;;;;;;0.40;0.40;;;10.40;94.90;;;;;;10530824;28;20223;-76
2024/03/07 15:03:02;;;;;;;0.40;0.40;;;10.40;94.70;;;;;;10523153;28;20204;-76
2024/03/07 15:08:06;;;;;;;0.43;0.43;;;10.40;94.90;;;;;;10531416;28;20219;-79
2024/03/07 15:13:12;;;;;;;0.40;0.40;;;10.50;94.70;;;;;;10538688;28;20280;-78
2024/03/07 15:18:14;;;;;;;0.30;0.30;;;10.50;93.40;;;;;;10538566;28;20766;-77
2024/03/07 15:23:18;;;;;;;0.40;0.40;;;10.40;94.30;;;;;;10537578;28;20215;-77
2024/03/07 15:28:21;;;;;;;0.50;0.50;;;10.40;94.20;;;;;;10539272;28;20653;-76
2024/03/07 15:33:23;;;;;;;0.50;0.50;;;10.30;94.00;;;;;;10537456;28;20269;-76
2024/03/07 15:38:28;;;;;;;0.30;0.30;;;10.20;94.40;;;;;;10535600;28;20238;-76
2024/03/07 15:43:31;;;;;;;0.50;0.50;;;10.20;94.60;;;;;;10534776;28;20610;-76
2024/03/07 15:48:33;;;;;;;0.50;0.50;;;10.10;94.20;;;;;;10524640;28;20216;-76
2024/03/07 15:53:37;;;;;;;0.40;0.40;;;10.10;94.10;;;;;;10518686;28;20669;-76
2024/03/07 15:58:39;;;;;;;0.50;0.50;;;10.00;94.50;;;;;;10500693;28;20224;-76
2024/03/07 16:03:44;;;;;;;0.50;0.50;;;10.10;94.70;;;;;;10532028;28;20204;-75
2024/03/07 16:08:48;;;;;;;0.50;0.50;;;10.10;94.30;;;;;;10528349;28;20701;-76
2024/03/07 16:13:50;;;;;;;0.50;0.50;;;10.10;93.90;;;;;;10544569;28;20196;-75
2024/03/07 16:18:53;;;;;;;0.60;0.60;;;10.10;94.40;;;;;;10540734;28;20228;-76
2024/03/07 16:23:57;;;;;;;0.50;0.50;;;10.10;95.00;;;;;;10539840;28;20219;-76
2024/03/07 16:28:59;;;;;;;0.50;0.50;;;10.00;94.50;;;;;;10539006;28;20226;-75
2024/03/07 16:34:02;;;;;;;0.30;0.30;;;10.00;94.50;;;;;;10540295;28;20264;-77
2024/03/07 16:39:11;;;;;;;0.50;0.50;;;10.00;94.30;;;;;;10541369;28;20286;-77
2024/03/07 16:44:14;;;;;;;0.50;0.50;;;10.00;94.10;;;;;;10540580;28;20204;-77
2024/03/07 16:49:17;;;;;;;0.50;0.50;;;9.90;95.20;;;;;;10539696;28;20235;-76
2024/03/07 16:54:21;;;;;;;0.50;0.50;;;9.90;95.70;;;;;;10546924;28;20200;-77
2024/03/07 16:59:24;;;;;;;0.40;0.40;;;9.90;95.90;;;;;;10538153;28;20211;-76
2024/03/07 17:04:26;;;;;;;0.50;0.50;;;9.80;95.20;;;;;;10545076;28;20192;-77
2024/03/07 17:09:30;;;;;;;0.50;0.50;;;9.80;95.30;;;;;;10534886;28;20222;-76
2024/03/07 17:14:35;;;;;;;0.50;0.50;;;9.80;95.00;;;;;;10550051;28;20200;-74
2024/03/07 17:19:37;;;;;;;0.60;0.60;;;9.70;95.30;;;;;;10542459;28;20257;-76
2024/03/07 17:24:42;;;;;;;0.50;0.50;;;9.70;95.40;;;;;;10548099;28;20200;-77
2024/03/07 17:29:45;;;;;;;0.40;0.40;;;9.70;95.50;;;;;;10543519;28;20235;-76
2024/03/07 17:34:48;;;;;;;0.50;0.50;;;9.70;95.50;;;;;;10546416;28;20249;-76
2024/03/07 17:39:53;;;;;;;0.20;0.20;;;9.70;95.10;;;;;;10538711;28;20208;-77
2024/03/07 17:44:56;;;;;;;0.57;0.57;;;9.60;95.00;;;;;;10545112;28;20207;-77
2024/03/07 17:49:58;;;;;;;0.50;0.50;;;9.60;95.50;;;;;;10536799;28;20227;-76
2024/03/07 17:55:07;;;;;;;0.50;0.50;;;9.60;95.90;;;;;;10534701;28;20203;-77
2024/03/07 18:00:15;;;;;;;0.50;0.50;;;9.60;95.40;;;;;;10528644;28;20224;-75
2024/03/07 18:05:19;;;;;;;0.50;0.50;;;9.50;95.30;;;;;;10540705;28;20836;-75
2024/03/07 18:10:23;;;;;;;0.50;0.50;;;9.50;95.80;;;;;;10540755;28;20222;-74
2024/03/07 18:15:27;;;;;;;0.57;0.57;;;9.50;95.90;;;;;;10540154;28;20200;-76
2024/03/07 18:20:29;;;;;;;0.53;0.53;;;9.50;96.00;;;;;;10537084;28;20954;-75
2024/03/07 18:25:35;;;;;;;0.50;0.50;;;9.50;95.90;;;;;;10539924;28;20668;-75
2024/03/07 18:30:37;;;;;;;0.50;0.50;;;9.50;95.70;;;;;;10538239;28;20242;-74
2024/03/07 18:35:42;;;;;;;0.50;0.50;;;9.50;95.70;;;;;;10526015;28;20228;-75
2024/03/07 18:40:48;;;;;;;0.20;0.20;;;9.40;95.60;;;;;;10516883;28;20256;-75
2024/03/07 18:45:51;;;;;;;0.50;0.50;;;9.40;95.80;;;;;;10522500;28;20224;-75
2024/03/07 18:50:53;;;;;;;0.60;0.60;;;9.40;95.90;;;;;;10527571;28;20704;-73
2024/03/07 18:55:57;;;;;;;0.50;0.50;;;9.30;96.30;;;;;;10535347;28;20227;-77
2024/03/07 19:01:04;;;;;;;0.40;0.40;;;9.30;96.20;;;;;;10517478;28;20248;-77
2024/03/07 19:06:08;;;;;;;0.57;0.57;;;9.30;96.80;;;;;;10531191;28;20223;-75
2024/03/07 19:11:12;;;;;;;0.50;0.50;;;9.20;96.30;;;;;;10535571;28;20693;-77
2024/03/07 19:16:15;;;;;;;0.50;0.50;;;9.20;96.10;;;;;;10528654;28;20231;-77
2024/03/07 19:21:20;;;;;;;0.50;0.50;;;9.10;96.40;;;;;;10529820;28;20241;-76
2024/03/07 19:26:24;;;;;;;0.10;0.10;;;9.10;96.90;;;;;;10517439;28;20277;-76
2024/03/07 19:31:30;;;;;;;0.50;0.50;;;9.10;97.20;;;;;;10528416;28;20696;-78
2024/03/07 19:36:33;;;;;;;0.40;0.40;;;9.00;97.20;;;;;;10532731;28;20215;-77
2024/03/07 19:41:37;;;;;;;0.30;0.30;;;9.10;97.40;;;;;;10537547;28;20192;-77
2024/03/07 19:46:42;;;;;;;0.60;0.60;;;9.10;97.30;;;;;;10534868;28;20594;-78
2024/03/07 19:51:45;;;;;;;0.50;0.50;;;9.10;97.30;;;;;;10541473;28;20215;-76
2024/03/07 19:56:50;;;;;;;0.60;0.60;;;9.10;97.50;;;;;;10536751;28;20238;-77
2024/03/07 20:01:52;;;;;;;0.40;0.40;;;9.10;97.50;;;;;;10538882;28;20191;-77
2024/03/07 20:06:55;;;;;;;0.50;0.50;;;9.10;97.30;;;;;;10513246;28;20269;-77
2024/03/07 20:11:58;;;;;;;0.57;0.57;;;9.10;97.30;;;;;;10540730;28;20705;-77
2024/03/07 20:17:01;;;;;;;0.60;0.60;;;9.10;97.70;;;;;;10532554;28;20227;-76
2024/03/07 20:22:06;;;;;;;0.70;0.70;;;9.10;97.60;;;;;;10535818;28;20241;-77
2024/03/07 20:27:10;;;;;;;0.60;0.60;;;9.10;97.60;;;;;;10536153;28;20638;-77
2024/03/07 20:32:13;;;;;;;0.50;0.50;;;9.00;97.70;;;;;;10533491;28;20215;-77
2024/03/07 20:37:15;;;;;;;0.70;0.70;;;9.10;97.50;;;;;;10541036;28;20219;-75
2024/03/07 20:42:19;;;;;;;0.60;0.60;;;9.00;97.00;;;;;;10537158;28;20249;-77
2024/03/07 20:47:23;;;;;;;0.50;0.50;;;8.90;97.00;;;;;;10533295;28;20223;-77
2024/03/07 20:52:28;;;;;;;0.60;0.60;;;8.90;97.00;;;;;;10532903;28;20641;-76
2024/03/07 20:57:32;;;;;;;0.60;0.60;;;8.80;97.30;;;;;;10529002;28;20223;-76
2024/03/07 21:02:35;;;;;;;0.50;0.50;;;8.80;97.60;;;;;;10532308;28;20241;-77
2024/03/07 21:07:40;;;;;;;0.60;0.60;;;8.70;97.40;;;;;;10533198;28;20230;-77
2024/03/07 21:12:44;;;;;;;0.60;0.60;;;8.60;97.40;;;;;;10538690;28;20272;-77
2024/03/07 21:17:46;;;;;;;0.60;0.60;;;8.60;97.30;;;;;;10539173;28;20272;-77
2024/03/07 21:22:51;;;;;;;0.50;0.50;;;8.40;97.30;;;;;;10542744;28;20607;-77
2024/03/07 21:27:54;;;;;;;0.60;0.60;;;8.40;97.40;;;;;;10541721;28;20219;-77
2024/03/07 21:32:58;;;;;;;0.50;0.50;;;8.30;97.60;;;;;;10542431;28;20760;-74
2024/03/07 21:38:01;;;;;;;0.50;0.50;;;8.20;97.70;;;;;;10530710;28;20218;-76
2024/03/07 21:43:06;;;;;;;0.50;0.50;;;8.10;97.30;;;;;;10528948;28;20207;-76
2024/03/07 21:48:08;;;;;;;0.50;0.50;;;8.00;97.20;;;;;;10528962;28;20223;-77
2024/03/07 21:53:11;;;;;;;0.53;0.53;;;7.90;97.40;;;;;;10533202;28;20521;-77
2024/03/07 21:58:16;;;;;;;0.50;0.50;;;7.90;97.50;;;;;;10534965;28;20222;-77
2024/03/07 22:03:18;;;;;;;0.60;0.60;;;7.80;97.70;;;;;;10533433;28;20199;-76
2024/03/07 22:08:21;;;;;;;0.50;0.50;;;7.70;97.40;;;;;;10530579;28;20229;-77
2024/03/07 22:13:25;;;;;;;0.60;0.60;;;7.70;97.40;;;;;;10530114;28;20683;-77
2024/03/07 22:18:27;;;;;;;0.50;0.50;;;7.50;97.30;;;;;;10541273;28;20216;-77
2024/03/07 22:23:32;;;;;;;0.60;0.60;;;7.40;97.40;;;;;;10543453;28;20188;-77
2024/03/07 22:28:36;;;;;;;0.70;0.70;;;7.20;97.40;;;;;;10538790;28;20229;-77
2024/03/07 22:33:39;;;;;;;0.50;0.50;;;7.10;97.80;;;;;;10539478;28;20211;-75
2024/03/07 22:38:42;;;;;;;0.77;0.77;;;7.00;97.60;;;;;;10537192;28;20230;-76
2024/03/07 22:43:45;;;;;;;0.70;0.70;;;6.90;97.60;;;;;;10539997;28;20199;-76
2024/03/07 22:48:48;;;;;;;0.80;0.80;;;6.80;97.80;;;;;;10530657;28;20220;-76
2024/03/07 22:53:50;;;;;;;0.70;0.70;;;6.70;97.80;;;;;;10534247;28;20220;-77
2024/03/07 22:58:55;;;;;;;0.80;0.80;;;6.60;98.10;;;;;;10533394;28;20215;-77
2024/03/07 23:03:59;;;;;;;0.60;0.60;;;6.50;97.90;;;;;;10535577;28;20203;-75
2024/03/07 23:09:03;;;;;;;0.80;0.80;;;6.50;97.70;;;;;;10528676;28;20265;-76
2024/03/07 23:14:07;;;;;;;0.60;0.60;;;6.40;97.90;;;;;;10524993;28;20222;-76
2024/03/07 23:19:11;;;;;;;0.60;0.60;;;6.40;97.80;;;;;;10539635;28;20212;-77
2024/03/07 23:24:14;;;;;;;0.60;0.60;;;6.30;97.90;;;;;;10534311;28;20203;-77
2024/03/07 23:29:18;;;;;;;0.60;0.60;;;6.20;97.70;;;;;;10537056;28;20231;-76
2024/03/07 23:34:20;;;;;;;0.70;0.70;;;6.10;97.80;;;;;;10538751;28;20227;-76
2024/03/07 23:39:23;;;;;;;0.80;0.80;;;6.00;98.00;;;;;;10531048;28;20216;-77
2024/03/07 23:44:26;;;;;;;0.80;0.80;;;6.00;98.10;;;;;;10533210;28;20576;-76
2024/03/07 23:49:29;;;;;;;0.70;0.70;;;5.90;97.70;;;;;;10526693;28;20269;-77
2024/03/07 23:54:31;;;;;;;0.80;0.80;;;5.80;97.60;;;;;;10528321;28;20220;-77
2024/03/07 23:59:35;;;;;;;0.83;0.83;;;5.80;97.60;;;;;;10529521;28;20689;-75
